sensor_id;sensor_type;location;lat;lon;timestamp;P1;durP1;ratioP1;P2;durP2;ratioP2
78402;SDS011;67687;43.508;1.504;2023-06-22T00:02:01;7.47;;;3.35;;
78402;SDS011;67687;43.508;1.504;2023-06-22T00:04:28;7.05;;;3.92;;
78402;SDS011;67687;43.508;1.504;2023-06-22T00:06:55;8.13;;;3.72;;
78402;SDS011;67687;43.508;1.504;2023-06-22T00:09:22;9.17;;;3.60;;
78402;SDS011;67687;43.508;1.504;2023-06-22T00:11:49;12.02;;;5.72;;
78402;SDS011;67687;43.508;1.504;2023-06-22T00:14:17;9.40;;;5.35;;
78402;SDS011;67687;43.508;1.504;2023-06-22T00:16:44;9.23;;;4.90;;
78402;SDS011;67687;43.508;1.504;2023-06-22T00:19:13;9.02;;;5.00;;
78402;SDS011;67687;43.508;1.504;2023-06-22T00:21:40;11.50;;;5.60;;
78402;SDS011;67687;43.508;1.504;2023-06-22T00:24:07;11.05;;;5.78;;
78402;SDS011;67687;43.508;1.504;2023-06-22T00:26:34;13.60;;;5.97;;
78402;SDS011;67687;43.508;1.504;2023-06-22T00:29:01;12.88;;;6.50;;
78402;SDS011;67687;43.508;1.504;2023-06-22T00:31:29;15.27;;;7.18;;
78402;SDS011;67687;43.508;1.504;2023-06-22T00:33:56;16.13;;;7.07;;
78402;SDS011;67687;43.508;1.504;2023-06-22T00:36:22;13.88;;;6.72;;
78402;SDS011;67687;43.508;1.504;2023-06-22T00:38:49;11.35;;;5.85;;
78402;SDS011;67687;43.508;1.504;2023-06-22T00:41:16;11.30;;;5.03;;
78402;SDS011;67687;43.508;1.504;2023-06-22T00:43:44;9.43;;;4.82;;
78402;SDS011;67687;43.508;1.504;2023-06-22T00:46:11;10.13;;;4.60;;
78402;SDS011;67687;43.508;1.504;2023-06-22T00:48:40;10.68;;;5.00;;
78402;SDS011;67687;43.508;1.504;2023-06-22T00:51:09;7.20;;;4.00;;
78402;SDS011;67687;43.508;1.504;2023-06-22T00:53:36;7.05;;;4.18;;
78402;SDS011;67687;43.508;1.504;2023-06-22T00:56:03;8.13;;;4.10;;
78402;SDS011;67687;43.508;1.504;2023-06-22T00:58:31;8.97;;;4.27;;
78402;SDS011;67687;43.508;1.504;2023-06-22T01:00:58;8.35;;;4.28;;
78402;SDS011;67687;43.508;1.504;2023-06-22T01:03:25;7.10;;;4.65;;
78402;SDS011;67687;43.508;1.504;2023-06-22T01:05:53;8.27;;;4.13;;
78402;SDS011;67687;43.508;1.504;2023-06-22T01:08:29;8.48;;;4.18;;
78402;SDS011;67687;43.508;1.504;2023-06-22T01:11:01;6.47;;;3.83;;
78402;SDS011;67687;43.508;1.504;2023-06-22T01:13:32;7.57;;;4.00;;
78402;SDS011;67687;43.508;1.504;2023-06-22T01:16:03;7.85;;;4.43;;
78402;SDS011;67687;43.508;1.504;2023-06-22T01:18:34;7.40;;;4.28;;
78402;SDS011;67687;43.508;1.504;2023-06-22T01:21:04;7.68;;;4.25;;
78402;SDS011;67687;43.508;1.504;2023-06-22T01:23:37;8.47;;;4.57;;
78402;SDS011;67687;43.508;1.504;2023-06-22T01:26:14;7.93;;;4.32;;
78402;SDS011;67687;43.508;1.504;2023-06-22T01:28:46;6.40;;;3.10;;
78402;SDS011;67687;43.508;1.504;2023-06-22T01:31:16;7.78;;;2.70;;
78402;SDS011;67687;43.508;1.504;2023-06-22T01:33:44;4.80;;;2.20;;
78402;SDS011;67687;43.508;1.504;2023-06-22T01:36:11;6.73;;;2.50;;
78402;SDS011;67687;43.508;1.504;2023-06-22T01:38:39;5.22;;;2.10;;
78402;SDS011;67687;43.508;1.504;2023-06-22T01:41:06;5.28;;;1.90;;
78402;SDS011;67687;43.508;1.504;2023-06-22T01:43:33;5.32;;;1.75;;
78402;SDS011;67687;43.508;1.504;2023-06-22T01:46:02;4.18;;;1.80;;
78402;SDS011;67687;43.508;1.504;2023-06-22T01:48:30;4.50;;;1.70;;
78402;SDS011;67687;43.508;1.504;2023-06-22T01:50:58;6.97;;;1.88;;
78402;SDS011;67687;43.508;1.504;2023-06-22T01:53:25;6.32;;;2.20;;
78402;SDS011;67687;43.508;1.504;2023-06-22T01:55:52;5.63;;;1.77;;
78402;SDS011;67687;43.508;1.504;2023-06-22T01:58:19;5.78;;;1.98;;
78402;SDS011;67687;43.508;1.504;2023-06-22T02:00:51;6.10;;;1.83;;
78402;SDS011;67687;43.508;1.504;2023-06-22T02:03:21;5.35;;;1.52;;
78402;SDS011;67687;43.508;1.504;2023-06-22T02:05:50;4.40;;;1.73;;
78402;SDS011;67687;43.508;1.504;2023-06-22T02:08:19;5.55;;;1.63;;
78402;SDS011;67687;43.508;1.504;2023-06-22T02:10:48;5.60;;;1.67;;
78402;SDS011;67687;43.508;1.504;2023-06-22T02:13:16;5.60;;;1.53;;
78402;SDS011;67687;43.508;1.504;2023-06-22T02:15:43;3.83;;;1.50;;
78402;SDS011;67687;43.508;1.504;2023-06-22T02:18:10;4.25;;;1.55;;
78402;SDS011;67687;43.508;1.504;2023-06-22T02:20:38;6.75;;;1.55;;
78402;SDS011;67687;43.508;1.504;2023-06-22T02:23:06;5.18;;;1.60;;
78402;SDS011;67687;43.508;1.504;2023-06-22T02:25:33;7.80;;;1.47;;
78402;SDS011;67687;43.508;1.504;2023-06-22T02:28:00;5.68;;;1.40;;
78402;SDS011;67687;43.508;1.504;2023-06-22T02:30:27;5.50;;;1.77;;
78402;SDS011;67687;43.508;1.504;2023-06-22T02:32:54;4.30;;;1.40;;
78402;SDS011;67687;43.508;1.504;2023-06-22T02:35:25;6.30;;;1.60;;
78402;SDS011;67687;43.508;1.504;2023-06-22T02:37:58;3.90;;;1.60;;
78402;SDS011;67687;43.508;1.504;2023-06-22T02:40:25;4.35;;;1.40;;
78402;SDS011;67687;43.508;1.504;2023-06-22T02:42:52;3.58;;;1.30;;
78402;SDS011;67687;43.508;1.504;2023-06-22T02:45:19;6.85;;;1.40;;
78402;SDS011;67687;43.508;1.504;2023-06-22T02:47:46;5.30;;;1.23;;
78402;SDS011;67687;43.508;1.504;2023-06-22T02:50:14;7.20;;;1.37;;
78402;SDS011;67687;43.508;1.504;2023-06-22T02:52:40;6.57;;;1.73;;
78402;SDS011;67687;43.508;1.504;2023-06-22T02:55:09;6.05;;;1.55;;
78402;SDS011;67687;43.508;1.504;2023-06-22T02:57:36;4.75;;;1.58;;
78402;SDS011;67687;43.508;1.504;2023-06-22T03:00:03;5.07;;;1.40;;
78402;SDS011;67687;43.508;1.504;2023-06-22T03:02:41;6.27;;;1.50;;
78402;SDS011;67687;43.508;1.504;2023-06-22T03:05:08;5.68;;;1.60;;
78402;SDS011;67687;43.508;1.504;2023-06-22T03:07:38;6.10;;;1.85;;
78402;SDS011;67687;43.508;1.504;2023-06-22T03:10:06;4.53;;;1.60;;
78402;SDS011;67687;43.508;1.504;2023-06-22T03:12:36;5.28;;;1.52;;
78402;SDS011;67687;43.508;1.504;2023-06-22T03:15:03;6.27;;;1.57;;
78402;SDS011;67687;43.508;1.504;2023-06-22T03:17:31;5.07;;;1.63;;
78402;SDS011;67687;43.508;1.504;2023-06-22T03:19:58;4.22;;;1.75;;
78402;SDS011;67687;43.508;1.504;2023-06-22T03:22:25;5.97;;;1.90;;
78402;SDS011;67687;43.508;1.504;2023-06-22T03:24:52;7.82;;;1.73;;
78402;SDS011;67687;43.508;1.504;2023-06-22T03:27:20;6.83;;;2.20;;
78402;SDS011;67687;43.508;1.504;2023-06-22T03:29:47;6.63;;;2.10;;
78402;SDS011;67687;43.508;1.504;2023-06-22T03:32:14;5.93;;;2.08;;
78402;SDS011;67687;43.508;1.504;2023-06-22T03:34:41;6.97;;;2.53;;
78402;SDS011;67687;43.508;1.504;2023-06-22T03:37:12;7.85;;;2.42;;
78402;SDS011;67687;43.508;1.504;2023-06-22T03:39:39;5.57;;;2.50;;
78402;SDS011;67687;43.508;1.504;2023-06-22T03:42:06;8.90;;;2.60;;
78402;SDS011;67687;43.508;1.504;2023-06-22T03:44:34;5.78;;;2.80;;
78402;SDS011;67687;43.508;1.504;2023-06-22T03:47:01;10.25;;;3.13;;
78402;SDS011;67687;43.508;1.504;2023-06-22T03:49:28;8.95;;;3.10;;
78402;SDS011;67687;43.508;1.504;2023-06-22T03:51:55;8.17;;;3.30;;
78402;SDS011;67687;43.508;1.504;2023-06-22T03:54:22;11.70;;;3.63;;
78402;SDS011;67687;43.508;1.504;2023-06-22T03:56:49;7.00;;;3.20;;
78402;SDS011;67687;43.508;1.504;2023-06-22T03:59:16;6.65;;;2.88;;
78402;SDS011;67687;43.508;1.504;2023-06-22T04:01:44;8.77;;;3.63;;
78402;SDS011;67687;43.508;1.504;2023-06-22T04:04:11;8.97;;;3.73;;
78402;SDS011;67687;43.508;1.504;2023-06-22T04:06:38;7.63;;;3.45;;
78402;SDS011;67687;43.508;1.504;2023-06-22T04:09:06;8.68;;;3.58;;
78402;SDS011;67687;43.508;1.504;2023-06-22T04:11:33;9.95;;;3.83;;
78402;SDS011;67687;43.508;1.504;2023-06-22T04:14:00;9.52;;;3.70;;
78402;SDS011;67687;43.508;1.504;2023-06-22T04:16:27;6.53;;;3.20;;
78402;SDS011;67687;43.508;1.504;2023-06-22T04:18:55;7.38;;;3.58;;
78402;SDS011;67687;43.508;1.504;2023-06-22T04:21:22;7.82;;;3.35;;
78402;SDS011;67687;43.508;1.504;2023-06-22T04:23:49;7.60;;;3.17;;
78402;SDS011;67687;43.508;1.504;2023-06-22T04:26:15;7.45;;;3.10;;
78402;SDS011;67687;43.508;1.504;2023-06-22T04:28:45;9.10;;;3.47;;
78402;SDS011;67687;43.508;1.504;2023-06-22T04:31:16;10.65;;;3.33;;
78402;SDS011;67687;43.508;1.504;2023-06-22T04:33:45;10.25;;;3.45;;
78402;SDS011;67687;43.508;1.504;2023-06-22T04:36:13;8.77;;;3.40;;
78402;SDS011;67687;43.508;1.504;2023-06-22T04:38:40;10.57;;;3.90;;
78402;SDS011;67687;43.508;1.504;2023-06-22T04:41:09;9.33;;;3.50;;
78402;SDS011;67687;43.508;1.504;2023-06-22T04:43:48;7.88;;;3.30;;
78402;SDS011;67687;43.508;1.504;2023-06-22T04:46:18;7.90;;;3.42;;
78402;SDS011;67687;43.508;1.504;2023-06-22T04:48:45;6.65;;;3.30;;
78402;SDS011;67687;43.508;1.504;2023-06-22T04:51:14;8.15;;;3.72;;
78402;SDS011;67687;43.508;1.504;2023-06-22T04:53:40;7.20;;;3.77;;
78402;SDS011;67687;43.508;1.504;2023-06-22T04:56:08;8.10;;;3.85;;
78402;SDS011;67687;43.508;1.504;2023-06-22T04:58:34;8.38;;;3.78;;
78402;SDS011;67687;43.508;1.504;2023-06-22T05:01:02;8.63;;;4.10;;
78402;SDS011;67687;43.508;1.504;2023-06-22T05:03:29;8.70;;;5.00;;
78402;SDS011;67687;43.508;1.504;2023-06-22T05:05:56;11.33;;;4.57;;
78402;SDS011;67687;43.508;1.504;2023-06-22T05:08:24;11.13;;;5.70;;
78402;SDS011;67687;43.508;1.504;2023-06-22T05:10:53;11.13;;;5.82;;
78402;SDS011;67687;43.508;1.504;2023-06-22T05:13:21;12.80;;;5.20;;
78402;SDS011;67687;43.508;1.504;2023-06-22T05:15:51;12.80;;;5.45;;
78402;SDS011;67687;43.508;1.504;2023-06-22T05:18:26;11.93;;;5.13;;
78402;SDS011;67687;43.508;1.504;2023-06-22T05:20:54;10.55;;;5.10;;
78402;SDS011;67687;43.508;1.504;2023-06-22T05:23:21;11.13;;;5.88;;
78402;SDS011;67687;43.508;1.504;2023-06-22T05:25:50;12.07;;;5.70;;
78402;SDS011;67687;43.508;1.504;2023-06-22T05:28:17;10.40;;;5.68;;
78402;SDS011;67687;43.508;1.504;2023-06-22T05:30:48;9.70;;;6.00;;
78402;SDS011;67687;43.508;1.504;2023-06-22T05:33:15;11.98;;;6.10;;
78402;SDS011;67687;43.508;1.504;2023-06-22T05:35:42;13.48;;;6.03;;
78402;SDS011;67687;43.508;1.504;2023-06-22T05:38:09;12.20;;;6.45;;
78402;SDS011;67687;43.508;1.504;2023-06-22T05:40:36;13.68;;;6.07;;
78402;SDS011;67687;43.508;1.504;2023-06-22T05:43:05;11.87;;;6.20;;
78402;SDS011;67687;43.508;1.504;2023-06-22T05:45:32;10.07;;;5.82;;
78402;SDS011;67687;43.508;1.504;2023-06-22T05:47:59;9.68;;;5.95;;
78402;SDS011;67687;43.508;1.504;2023-06-22T05:50:26;12.52;;;5.88;;
78402;SDS011;67687;43.508;1.504;2023-06-22T05:52:53;9.10;;;6.10;;
78402;SDS011;67687;43.508;1.504;2023-06-22T05:55:20;9.20;;;6.17;;
78402;SDS011;67687;43.508;1.504;2023-06-22T05:57:49;12.77;;;6.00;;
78402;SDS011;67687;43.508;1.504;2023-06-22T06:00:19;11.18;;;6.28;;
78402;SDS011;67687;43.508;1.504;2023-06-22T06:02:47;12.90;;;5.75;;
78402;SDS011;67687;43.508;1.504;2023-06-22T06:05:14;11.90;;;6.45;;
78402;SDS011;67687;43.508;1.504;2023-06-22T06:07:41;9.33;;;6.30;;
78402;SDS011;67687;43.508;1.504;2023-06-22T06:10:09;10.88;;;6.43;;
78402;SDS011;67687;43.508;1.504;2023-06-22T06:12:36;11.82;;;6.50;;
78402;SDS011;67687;43.508;1.504;2023-06-22T06:15:03;10.90;;;6.45;;
78402;SDS011;67687;43.508;1.504;2023-06-22T06:17:31;11.55;;;6.55;;
78402;SDS011;67687;43.508;1.504;2023-06-22T06:20:02;11.87;;;6.00;;
78402;SDS011;67687;43.508;1.504;2023-06-22T06:22:30;11.40;;;6.47;;
78402;SDS011;67687;43.508;1.504;2023-06-22T06:24:56;10.38;;;6.18;;
78402;SDS011;67687;43.508;1.504;2023-06-22T06:27:23;11.75;;;6.45;;
78402;SDS011;67687;43.508;1.504;2023-06-22T06:29:54;11.55;;;6.43;;
78402;SDS011;67687;43.508;1.504;2023-06-22T06:32:20;11.17;;;6.13;;
78402;SDS011;67687;43.508;1.504;2023-06-22T06:34:49;10.50;;;5.80;;
78402;SDS011;67687;43.508;1.504;2023-06-22T06:37:16;11.68;;;5.90;;
78402;SDS011;67687;43.508;1.504;2023-06-22T06:39:43;10.75;;;5.78;;
78402;SDS011;67687;43.508;1.504;2023-06-22T06:42:10;11.60;;;6.50;;
78402;SDS011;67687;43.508;1.504;2023-06-22T06:44:37;10.40;;;6.00;;
78402;SDS011;67687;43.508;1.504;2023-06-22T06:47:04;9.27;;;5.82;;
78402;SDS011;67687;43.508;1.504;2023-06-22T06:49:31;9.70;;;6.10;;
78402;SDS011;67687;43.508;1.504;2023-06-22T06:51:59;11.80;;;5.60;;
78402;SDS011;67687;43.508;1.504;2023-06-22T06:54:26;9.73;;;5.50;;
78402;SDS011;67687;43.508;1.504;2023-06-22T06:56:53;11.57;;;5.77;;
78402;SDS011;67687;43.508;1.504;2023-06-22T06:59:19;9.35;;;5.50;;
78402;SDS011;67687;43.508;1.504;2023-06-22T07:01:47;9.02;;;5.63;;
78402;SDS011;67687;43.508;1.504;2023-06-22T07:04:13;10.48;;;6.13;;
78402;SDS011;67687;43.508;1.504;2023-06-22T07:06:40;10.98;;;5.82;;
78402;SDS011;67687;43.508;1.504;2023-06-22T07:09:09;9.67;;;5.57;;
78402;SDS011;67687;43.508;1.504;2023-06-22T07:11:36;10.57;;;5.38;;
78402;SDS011;67687;43.508;1.504;2023-06-22T07:14:03;8.30;;;5.00;;
78402;SDS011;67687;43.508;1.504;2023-06-22T07:16:29;9.23;;;5.28;;
78402;SDS011;67687;43.508;1.504;2023-06-22T07:18:56;10.45;;;5.20;;
78402;SDS011;67687;43.508;1.504;2023-06-22T07:21:23;12.37;;;5.37;;
78402;SDS011;67687;43.508;1.504;2023-06-22T07:23:50;10.73;;;5.68;;
78402;SDS011;67687;43.508;1.504;2023-06-22T07:26:18;9.32;;;5.07;;
78402;SDS011;67687;43.508;1.504;2023-06-22T07:28:45;10.40;;;4.70;;
78402;SDS011;67687;43.508;1.504;2023-06-22T07:31:12;8.38;;;4.40;;
78402;SDS011;67687;43.508;1.504;2023-06-22T07:33:39;10.73;;;4.53;;
78402;SDS011;67687;43.508;1.504;2023-06-22T07:36:06;6.53;;;4.22;;
78402;SDS011;67687;43.508;1.504;2023-06-22T07:38:33;7.32;;;4.18;;
78402;SDS011;67687;43.508;1.504;2023-06-22T07:41:01;8.30;;;4.07;;
78402;SDS011;67687;43.508;1.504;2023-06-22T07:43:31;8.02;;;4.35;;
78402;SDS011;67687;43.508;1.504;2023-06-22T07:45:59;7.50;;;4.13;;
78402;SDS011;67687;43.508;1.504;2023-06-22T07:48:26;6.93;;;4.30;;
78402;SDS011;67687;43.508;1.504;2023-06-22T07:50:53;7.50;;;4.07;;
78402;SDS011;67687;43.508;1.504;2023-06-22T07:53:19;8.27;;;3.72;;
78402;SDS011;67687;43.508;1.504;2023-06-22T07:55:46;6.35;;;3.83;;
78402;SDS011;67687;43.508;1.504;2023-06-22T07:58:13;6.20;;;3.53;;
78402;SDS011;67687;43.508;1.504;2023-06-22T08:00:42;7.38;;;3.55;;
78402;SDS011;67687;43.508;1.504;2023-06-22T08:03:09;6.22;;;2.92;;
78402;SDS011;67687;43.508;1.504;2023-06-22T08:05:36;7.75;;;3.10;;
78402;SDS011;67687;43.508;1.504;2023-06-22T08:08:03;4.95;;;2.70;;
78402;SDS011;67687;43.508;1.504;2023-06-22T08:10:30;6.00;;;2.60;;
78402;SDS011;67687;43.508;1.504;2023-06-22T08:12:57;4.80;;;2.60;;
78402;SDS011;67687;43.508;1.504;2023-06-22T08:15:26;5.68;;;2.65;;
78402;SDS011;67687;43.508;1.504;2023-06-22T08:17:54;5.40;;;2.70;;
78402;SDS011;67687;43.508;1.504;2023-06-22T08:20:23;5.50;;;2.80;;
78402;SDS011;67687;43.508;1.504;2023-06-22T08:22:50;6.70;;;2.40;;
78402;SDS011;67687;43.508;1.504;2023-06-22T08:25:17;4.30;;;2.45;;
78402;SDS011;67687;43.508;1.504;2023-06-22T08:27:44;4.72;;;2.55;;
78402;SDS011;67687;43.508;1.504;2023-06-22T08:30:12;5.38;;;2.72;;
78402;SDS011;67687;43.508;1.504;2023-06-22T08:32:39;5.28;;;2.50;;
78402;SDS011;67687;43.508;1.504;2023-06-22T08:35:08;4.87;;;2.57;;
78402;SDS011;67687;43.508;1.504;2023-06-22T08:37:35;5.97;;;2.90;;
78402;SDS011;67687;43.508;1.504;2023-06-22T08:40:03;4.95;;;2.40;;
78402;SDS011;67687;43.508;1.504;2023-06-22T08:42:31;5.30;;;3.00;;
78402;SDS011;67687;43.508;1.504;2023-06-22T08:44:57;4.88;;;2.60;;
78402;SDS011;67687;43.508;1.504;2023-06-22T08:47:24;4.93;;;2.77;;
78402;SDS011;67687;43.508;1.504;2023-06-22T08:49:51;5.57;;;2.90;;
78402;SDS011;67687;43.508;1.504;2023-06-22T08:52:19;6.47;;;2.80;;
78402;SDS011;67687;43.508;1.504;2023-06-22T08:54:48;6.05;;;2.63;;
78402;SDS011;67687;43.508;1.504;2023-06-22T08:57:15;7.07;;;2.90;;
78402;SDS011;67687;43.508;1.504;2023-06-22T08:59:42;4.90;;;2.90;;
78402;SDS011;67687;43.508;1.504;2023-06-22T09:02:09;4.40;;;2.72;;
78402;SDS011;67687;43.508;1.504;2023-06-22T09:04:36;5.88;;;2.90;;
78402;SDS011;67687;43.508;1.504;2023-06-22T09:07:03;5.07;;;2.75;;
78402;SDS011;67687;43.508;1.504;2023-06-22T09:09:31;6.47;;;2.95;;
78402;SDS011;67687;43.508;1.504;2023-06-22T09:11:58;6.27;;;3.00;;
78402;SDS011;67687;43.508;1.504;2023-06-22T09:14:25;6.20;;;3.38;;
78402;SDS011;67687;43.508;1.504;2023-06-22T09:16:52;7.97;;;3.35;;
78402;SDS011;67687;43.508;1.504;2023-06-22T09:19:19;5.85;;;3.00;;
78402;SDS011;67687;43.508;1.504;2023-06-22T09:21:45;5.28;;;2.85;;
78402;SDS011;67687;43.508;1.504;2023-06-22T09:24:12;5.87;;;3.00;;
78402;SDS011;67687;43.508;1.504;2023-06-22T09:26:41;6.65;;;2.72;;
78402;SDS011;67687;43.508;1.504;2023-06-22T09:29:07;5.32;;;3.00;;
78402;SDS011;67687;43.508;1.504;2023-06-22T09:31:35;5.28;;;3.22;;
78402;SDS011;67687;43.508;1.504;2023-06-22T09:34:02;6.63;;;3.40;;
78402;SDS011;67687;43.508;1.504;2023-06-22T09:36:29;6.50;;;3.30;;
78402;SDS011;67687;43.508;1.504;2023-06-22T09:38:56;6.43;;;2.83;;
78402;SDS011;67687;43.508;1.504;2023-06-22T09:41:23;7.07;;;3.50;;
78402;SDS011;67687;43.508;1.504;2023-06-22T09:43:52;6.75;;;3.20;;
78402;SDS011;67687;43.508;1.504;2023-06-22T09:46:19;5.50;;;3.13;;
78402;SDS011;67687;43.508;1.504;2023-06-22T09:48:47;4.90;;;2.80;;
78402;SDS011;67687;43.508;1.504;2023-06-22T09:51:14;7.40;;;2.95;;
78402;SDS011;67687;43.508;1.504;2023-06-22T09:53:43;5.20;;;3.25;;
78402;SDS011;67687;43.508;1.504;2023-06-22T09:56:10;6.88;;;3.05;;
78402;SDS011;67687;43.508;1.504;2023-06-22T09:58:40;6.90;;;3.65;;
78402;SDS011;67687;43.508;1.504;2023-06-22T10:01:08;6.00;;;3.13;;
78402;SDS011;67687;43.508;1.504;2023-06-22T10:03:35;5.82;;;3.30;;
78402;SDS011;67687;43.508;1.504;2023-06-22T10:06:02;6.60;;;3.22;;
78402;SDS011;67687;43.508;1.504;2023-06-22T10:08:29;5.35;;;2.85;;
78402;SDS011;67687;43.508;1.504;2023-06-22T10:10:55;5.63;;;3.17;;
78402;SDS011;67687;43.508;1.504;2023-06-22T10:13:22;5.10;;;2.80;;
78402;SDS011;67687;43.508;1.504;2023-06-22T10:15:51;5.18;;;2.70;;
78402;SDS011;67687;43.508;1.504;2023-06-22T10:18:19;5.55;;;3.33;;
78402;SDS011;67687;43.508;1.504;2023-06-22T10:20:47;5.88;;;2.95;;
78402;SDS011;67687;43.508;1.504;2023-06-22T10:23:15;7.30;;;3.50;;
78402;SDS011;67687;43.508;1.504;2023-06-22T10:25:42;5.73;;;3.10;;
78402;SDS011;67687;43.508;1.504;2023-06-22T10:28:08;6.75;;;3.33;;
78402;SDS011;67687;43.508;1.504;2023-06-22T10:30:35;6.80;;;3.03;;
78402;SDS011;67687;43.508;1.504;2023-06-22T10:33:02;5.82;;;3.33;;
78402;SDS011;67687;43.508;1.504;2023-06-22T10:35:30;5.70;;;3.50;;
78402;SDS011;67687;43.508;1.504;2023-06-22T10:37:57;5.43;;;2.93;;
78402;SDS011;67687;43.508;1.504;2023-06-22T10:40:25;5.07;;;3.40;;
78402;SDS011;67687;43.508;1.504;2023-06-22T10:42:51;6.57;;;3.47;;
78402;SDS011;67687;43.508;1.504;2023-06-22T10:45:18;6.68;;;2.95;;
78402;SDS011;67687;43.508;1.504;2023-06-22T10:47:45;5.90;;;3.38;;
78402;SDS011;67687;43.508;1.504;2023-06-22T10:50:12;5.23;;;3.20;;
78402;SDS011;67687;43.508;1.504;2023-06-22T10:52:40;5.50;;;3.33;;
78402;SDS011;67687;43.508;1.504;2023-06-22T10:55:07;5.25;;;2.83;;
78402;SDS011;67687;43.508;1.504;2023-06-22T10:57:34;6.25;;;3.30;;
78402;SDS011;67687;43.508;1.504;2023-06-22T11:00:04;6.32;;;3.40;;
78402;SDS011;67687;43.508;1.504;2023-06-22T11:02:33;5.73;;;3.40;;
78402;SDS011;67687;43.508;1.504;2023-06-22T11:05:00;5.00;;;3.30;;
78402;SDS011;67687;43.508;1.504;2023-06-22T11:07:28;5.78;;;3.30;;
78402;SDS011;67687;43.508;1.504;2023-06-22T11:09:57;6.18;;;3.38;;
78402;SDS011;67687;43.508;1.504;2023-06-22T11:12:24;5.97;;;3.50;;
78402;SDS011;67687;43.508;1.504;2023-06-22T11:14:51;5.40;;;3.30;;
78402;SDS011;67687;43.508;1.504;2023-06-22T11:17:18;6.25;;;3.30;;
78402;SDS011;67687;43.508;1.504;2023-06-22T11:19:45;6.57;;;3.10;;
78402;SDS011;67687;43.508;1.504;2023-06-22T11:22:12;5.78;;;3.03;;
78402;SDS011;67687;43.508;1.504;2023-06-22T11:24:39;5.55;;;3.10;;
78402;SDS011;67687;43.508;1.504;2023-06-22T11:27:08;6.17;;;3.37;;
78402;SDS011;67687;43.508;1.504;2023-06-22T11:29:35;5.43;;;3.20;;
78402;SDS011;67687;43.508;1.504;2023-06-22T11:32:03;7.32;;;3.00;;
78402;SDS011;67687;43.508;1.504;2023-06-22T11:34:31;6.28;;;2.97;;
78402;SDS011;67687;43.508;1.504;2023-06-22T11:36:58;5.40;;;3.00;;
78402;SDS011;67687;43.508;1.504;2023-06-22T11:39:27;5.30;;;3.00;;
78402;SDS011;67687;43.508;1.504;2023-06-22T11:41:53;7.88;;;3.00;;
78402;SDS011;67687;43.508;1.504;2023-06-22T11:44:22;5.85;;;2.83;;
78402;SDS011;67687;43.508;1.504;2023-06-22T11:46:48;5.40;;;3.20;;
78402;SDS011;67687;43.508;1.504;2023-06-22T11:49:15;6.10;;;3.38;;
78402;SDS011;67687;43.508;1.504;2023-06-22T11:51:42;9.37;;;3.63;;
78402;SDS011;67687;43.508;1.504;2023-06-22T11:54:09;8.43;;;3.53;;
78402;SDS011;67687;43.508;1.504;2023-06-22T11:56:36;6.65;;;3.80;;
78402;SDS011;67687;43.508;1.504;2023-06-22T11:59:02;6.40;;;3.38;;
78402;SDS011;67687;43.508;1.504;2023-06-22T12:01:31;7.20;;;3.83;;
78402;SDS011;67687;43.508;1.504;2023-06-22T12:03:58;6.03;;;3.27;;
78402;SDS011;67687;43.508;1.504;2023-06-22T12:06:25;6.47;;;2.83;;
78402;SDS011;67687;43.508;1.504;2023-06-22T12:08:52;5.80;;;3.10;;
78402;SDS011;67687;43.508;1.504;2023-06-22T12:11:19;4.88;;;3.15;;
78402;SDS011;67687;43.508;1.504;2023-06-22T12:13:46;5.45;;;3.17;;
78402;SDS011;67687;43.508;1.504;2023-06-22T12:16:13;5.30;;;3.03;;
78402;SDS011;67687;43.508;1.504;2023-06-22T12:18:41;5.95;;;3.20;;
78402;SDS011;67687;43.508;1.504;2023-06-22T12:21:08;5.45;;;3.10;;
78402;SDS011;67687;43.508;1.504;2023-06-22T12:23:34;6.75;;;3.00;;
78402;SDS011;67687;43.508;1.504;2023-06-22T12:26:01;6.35;;;3.53;;
78402;SDS011;67687;43.508;1.504;2023-06-22T12:28:28;6.17;;;2.97;;
78402;SDS011;67687;43.508;1.504;2023-06-22T12:30:56;6.03;;;3.70;;
78402;SDS011;67687;43.508;1.504;2023-06-22T12:33:22;5.70;;;3.10;;
78402;SDS011;67687;43.508;1.504;2023-06-22T12:35:50;4.82;;;2.78;;
78402;SDS011;67687;43.508;1.504;2023-06-22T12:38:17;6.10;;;3.17;;
78402;SDS011;67687;43.508;1.504;2023-06-22T12:40:44;6.07;;;3.10;;
78402;SDS011;67687;43.508;1.504;2023-06-22T12:43:12;6.22;;;3.20;;
78402;SDS011;67687;43.508;1.504;2023-06-22T12:45:39;4.90;;;2.85;;
78402;SDS011;67687;43.508;1.504;2023-06-22T12:48:05;5.93;;;3.25;;
78402;SDS011;67687;43.508;1.504;2023-06-22T12:50:33;6.60;;;3.20;;
78402;SDS011;67687;43.508;1.504;2023-06-22T12:53:01;5.53;;;2.97;;
78402;SDS011;67687;43.508;1.504;2023-06-22T12:55:29;5.57;;;3.10;;
78402;SDS011;67687;43.508;1.504;2023-06-22T12:57:56;5.53;;;2.90;;
78402;SDS011;67687;43.508;1.504;2023-06-22T13:00:22;4.63;;;2.78;;
78402;SDS011;67687;43.508;1.504;2023-06-22T13:02:49;5.35;;;2.90;;
78402;SDS011;67687;43.508;1.504;2023-06-22T13:05:16;5.10;;;3.10;;
78402;SDS011;67687;43.508;1.504;2023-06-22T13:07:43;5.65;;;2.90;;
78402;SDS011;67687;43.508;1.504;2023-06-22T13:10:12;5.10;;;2.83;;
78402;SDS011;67687;43.508;1.504;2023-06-22T13:12:39;5.28;;;2.92;;
78402;SDS011;67687;43.508;1.504;2023-06-22T13:15:06;5.15;;;2.83;;
78402;SDS011;67687;43.508;1.504;2023-06-22T13:17:33;5.87;;;3.07;;
78402;SDS011;67687;43.508;1.504;2023-06-22T13:20:00;5.80;;;2.80;;
78402;SDS011;67687;43.508;1.504;2023-06-22T13:22:29;7.20;;;3.22;;
78402;SDS011;67687;43.508;1.504;2023-06-22T13:24:56;7.82;;;3.50;;
78402;SDS011;67687;43.508;1.504;2023-06-22T13:27:25;5.10;;;3.33;;
78402;SDS011;67687;43.508;1.504;2023-06-22T13:29:52;7.60;;;3.77;;
78402;SDS011;67687;43.508;1.504;2023-06-22T13:32:19;6.70;;;3.75;;
78402;SDS011;67687;43.508;1.504;2023-06-22T13:34:45;7.45;;;3.08;;
78402;SDS011;67687;43.508;1.504;2023-06-22T13:37:12;5.57;;;3.63;;
78402;SDS011;67687;43.508;1.504;2023-06-22T13:39:39;6.63;;;3.65;;
78402;SDS011;67687;43.508;1.504;2023-06-22T13:42:06;5.20;;;3.43;;
78402;SDS011;67687;43.508;1.504;2023-06-22T13:44:35;5.68;;;3.45;;
78402;SDS011;67687;43.508;1.504;2023-06-22T13:47:02;4.97;;;3.10;;
78402;SDS011;67687;43.508;1.504;2023-06-22T13:49:29;5.88;;;3.13;;
78402;SDS011;67687;43.508;1.504;2023-06-22T13:51:56;5.38;;;3.05;;
78402;SDS011;67687;43.508;1.504;2023-06-22T13:54:23;6.70;;;3.30;;
78402;SDS011;67687;43.508;1.504;2023-06-22T13:56:50;5.63;;;3.15;;
78402;SDS011;67687;43.508;1.504;2023-06-22T13:59:16;6.30;;;3.15;;
78402;SDS011;67687;43.508;1.504;2023-06-22T14:01:46;6.75;;;3.45;;
78402;SDS011;67687;43.508;1.504;2023-06-22T14:04:13;7.10;;;3.25;;
78402;SDS011;67687;43.508;1.504;2023-06-22T14:06:39;6.37;;;3.60;;
78402;SDS011;67687;43.508;1.504;2023-06-22T14:09:06;6.65;;;3.95;;
78402;SDS011;67687;43.508;1.504;2023-06-22T14:11:33;6.25;;;3.60;;
78402;SDS011;67687;43.508;1.504;2023-06-22T14:14:00;5.82;;;4.22;;
78402;SDS011;67687;43.508;1.504;2023-06-22T14:16:26;7.00;;;4.10;;
78402;SDS011;67687;43.508;1.504;2023-06-22T14:18:55;5.90;;;4.00;;
78402;SDS011;67687;43.508;1.504;2023-06-22T14:21:21;7.10;;;4.10;;
78402;SDS011;67687;43.508;1.504;2023-06-22T14:23:48;6.97;;;4.30;;
78402;SDS011;67687;43.508;1.504;2023-06-22T14:26:15;8.18;;;4.72;;
78402;SDS011;67687;43.508;1.504;2023-06-22T14:28:43;8.52;;;4.60;;
78402;SDS011;67687;43.508;1.504;2023-06-22T14:31:12;6.57;;;4.10;;
78402;SDS011;67687;43.508;1.504;2023-06-22T14:33:40;7.47;;;4.30;;
78402;SDS011;67687;43.508;1.504;2023-06-22T14:36:08;6.35;;;4.28;;
78402;SDS011;67687;43.508;1.504;2023-06-22T14:38:36;6.22;;;4.63;;
78402;SDS011;67687;43.508;1.504;2023-06-22T14:41:03;6.45;;;4.45;;
78402;SDS011;67687;43.508;1.504;2023-06-22T14:43:30;8.47;;;5.00;;
78402;SDS011;67687;43.508;1.504;2023-06-22T14:45:56;6.28;;;4.18;;
78402;SDS011;67687;43.508;1.504;2023-06-22T14:48:23;9.20;;;4.18;;